sensor_id;sensor_type;location;lat;lon;timestamp;temperature;humidity
7206;DHT22;3644;53.480;10.004;2023-04-06T00:00:39;5.70;99.90
7206;DHT22;3644;53.480;10.004;2023-04-06T00:03:04;5.70;99.90
7206;DHT22;3644;53.480;10.004;2023-04-06T00:05:30;5.60;99.90
7206;DHT22;3644;53.480;10.004;2023-04-06T00:07:57;5.60;99.90
7206;DHT22;3644;53.480;10.004;2023-04-06T00:10:23;5.60;99.90
7206;DHT22;3644;53.480;10.004;2023-04-06T00:12:48;5.60;99.90
7206;DHT22;3644;53.480;10.004;2023-04-06T00:15:14;5.40;99.90
7206;DHT22;3644;53.480;10.004;2023-04-06T00:17:39;5.40;99.90
7206;DHT22;3644;53.480;10.004;2023-04-06T00:20:06;5.30;99.90
7206;DHT22;3644;53.480;10.004;2023-04-06T00:22:32;5.40;99.90
7206;DHT22;3644;53.480;10.004;2023-04-06T00:24:57;5.30;99.90
7206;DHT22;3644;53.480;10.004;2023-04-06T00:27:23;5.30;99.90
7206;DHT22;3644;53.480;10.004;2023-04-06T00:29:48;5.30;99.90
7206;DHT22;3644;53.480;10.004;2023-04-06T00:32:14;5.30;99.90
7206;DHT22;3644;53.480;10.004;2023-04-06T00:34:40;5.30;99.90
7206;DHT22;3644;53.480;10.004;2023-04-06T00:37:05;5.30;99.90
7206;DHT22;3644;53.480;10.004;2023-04-06T00:39:31;5.10;99.90
7206;DHT22;3644;53.480;10.004;2023-04-06T00:41:56;5.10;99.90
7206;DHT22;3644;53.480;10.004;2023-04-06T00:44:22;5.10;99.90
7206;DHT22;3644;53.480;10.004;2023-04-06T00:46:48;5.10;99.90
7206;DHT22;3644;53.480;10.004;2023-04-06T00:49:13;5.10;99.90
7206;DHT22;3644;53.480;10.004;2023-04-06T00:51:40;5.00;99.90
7206;DHT22;3644;53.480;10.004;2023-04-06T00:54:05;5.00;99.90
7206;DHT22;3644;53.480;10.004;2023-04-06T00:56:31;5.00;99.90
7206;DHT22;3644;53.480;10.004;2023-04-06T00:58:59;5.00;99.90
7206;DHT22;3644;53.480;10.004;2023-04-06T01:01:25;5.00;99.90
7206;DHT22;3644;53.480;10.004;2023-04-06T01:03:51;4.90;99.90
7206;DHT22;3644;53.480;10.004;2023-04-06T01:06:17;4.90;99.90
7206;DHT22;3644;53.480;10.004;2023-04-06T01:08:42;4.90;99.90
7206;DHT22;3644;53.480;10.004;2023-04-06T01:11:08;5.00;99.90
7206;DHT22;3644;53.480;10.004;2023-04-06T01:13:33;4.80;99.90
7206;DHT22;3644;53.480;10.004;2023-04-06T01:15:59;4.80;99.90
7206;DHT22;3644;53.480;10.004;2023-04-06T01:18:28;4.80;99.90
7206;DHT22;3644;53.480;10.004;2023-04-06T01:20:55;4.70;99.90
7206;DHT22;3644;53.480;10.004;2023-04-06T01:23:21;4.70;99.90
7206;DHT22;3644;53.480;10.004;2023-04-06T01:25:46;4.70;99.90
7206;DHT22;3644;53.480;10.004;2023-04-06T01:28:12;4.60;99.90
7206;DHT22;3644;53.480;10.004;2023-04-06T01:30:37;4.60;99.90
7206;DHT22;3644;53.480;10.004;2023-04-06T01:33:03;4.50;99.90
7206;DHT22;3644;53.480;10.004;2023-04-06T01:35:29;4.50;99.90
7206;DHT22;3644;53.480;10.004;2023-04-06T01:37:55;4.60;99.90
7206;DHT22;3644;53.480;10.004;2023-04-06T01:40:20;4.50;99.90
7206;DHT22;3644;53.480;10.004;2023-04-06T01:42:46;4.40;99.90
7206;DHT22;3644;53.480;10.004;2023-04-06T01:45:12;4.40;99.90
7206;DHT22;3644;53.480;10.004;2023-04-06T01:47:38;4.40;99.90
7206;DHT22;3644;53.480;10.004;2023-04-06T01:50:03;4.30;99.90
7206;DHT22;3644;53.480;10.004;2023-04-06T01:52:32;4.40;99.90
7206;DHT22;3644;53.480;10.004;2023-04-06T01:54:58;4.40;99.90
7206;DHT22;3644;53.480;10.004;2023-04-06T01:57:24;4.40;99.90
7206;DHT22;3644;53.480;10.004;2023-04-06T01:59:50;4.30;99.90
7206;DHT22;3644;53.480;10.004;2023-04-06T02:02:16;4.20;99.90
7206;DHT22;3644;53.480;10.004;2023-04-06T02:04:41;4.20;99.90
7206;DHT22;3644;53.480;10.004;2023-04-06T02:07:07;4.20;99.90
7206;DHT22;3644;53.480;10.004;2023-04-06T02:09:32;4.10;99.90
7206;DHT22;3644;53.480;10.004;2023-04-06T02:11:58;4.10;99.90
7206;DHT22;3644;53.480;10.004;2023-04-06T02:14:26;4.10;99.90
7206;DHT22;3644;53.480;10.004;2023-04-06T02:16:52;4.00;99.90
7206;DHT22;3644;53.480;10.004;2023-04-06T02:19:17;4.00;99.90
7206;DHT22;3644;53.480;10.004;2023-04-06T02:21:43;4.10;99.90
7206;DHT22;3644;53.480;10.004;2023-04-06T02:24:08;4.00;99.90
7206;DHT22;3644;53.480;10.004;2023-04-06T02:26:34;4.00;99.90
7206;DHT22;3644;53.480;10.004;2023-04-06T02:28:59;3.90;99.90
7206;DHT22;3644;53.480;10.004;2023-04-06T02:31:26;3.90;99.90
7206;DHT22;3644;53.480;10.004;2023-04-06T02:33:52;3.90;99.90
7206;DHT22;3644;53.480;10.004;2023-04-06T02:36:17;3.90;99.90
7206;DHT22;3644;53.480;10.004;2023-04-06T02:38:42;3.90;99.90
7206;DHT22;3644;53.480;10.004;2023-04-06T02:41:08;4.00;99.90
7206;DHT22;3644;53.480;10.004;2023-04-06T02:43:34;3.90;99.90
7206;DHT22;3644;53.480;10.004;2023-04-06T02:46:00;3.80;99.90
7206;DHT22;3644;53.480;10.004;2023-04-06T02:48:25;3.90;99.90
7206;DHT22;3644;53.480;10.004;2023-04-06T02:50:51;3.80;99.90
7206;DHT22;3644;53.480;10.004;2023-04-06T02:53:16;3.80;99.90
7206;DHT22;3644;53.480;10.004;2023-04-06T02:55:42;3.80;99.90
7206;DHT22;3644;53.480;10.004;2023-04-06T02:58:07;3.80;99.90
7206;DHT22;3644;53.480;10.004;2023-04-06T03:00:33;3.80;99.90
7206;DHT22;3644;53.480;10.004;2023-04-06T03:02:58;3.90;99.90
7206;DHT22;3644;53.480;10.004;2023-04-06T03:05:24;3.90;99.90
7206;DHT22;3644;53.480;10.004;2023-04-06T03:07:49;3.80;99.90
7206;DHT22;3644;53.480;10.004;2023-04-06T03:10:15;3.70;99.90
7206;DHT22;3644;53.480;10.004;2023-04-06T03:12:40;3.70;99.90
7206;DHT22;3644;53.480;10.004;2023-04-06T03:15:07;3.70;99.90
7206;DHT22;3644;53.480;10.004;2023-04-06T03:17:33;3.80;99.90
7206;DHT22;3644;53.480;10.004;2023-04-06T03:19:58;3.70;99.90
7206;DHT22;3644;53.480;10.004;2023-04-06T03:22:24;3.60;99.90
7206;DHT22;3644;53.480;10.004;2023-04-06T03:24:49;3.60;99.90
7206;DHT22;3644;53.480;10.004;2023-04-06T03:27:15;3.70;99.90
7206;DHT22;3644;53.480;10.004;2023-04-06T03:29:41;3.60;99.90
7206;DHT22;3644;53.480;10.004;2023-04-06T03:32:06;3.60;99.90
7206;DHT22;3644;53.480;10.004;2023-04-06T03:34:32;3.60;99.90
7206;DHT22;3644;53.480;10.004;2023-04-06T03:36:57;3.60;99.90
7206;DHT22;3644;53.480;10.004;2023-04-06T03:39:23;3.60;99.90
7206;DHT22;3644;53.480;10.004;2023-04-06T03:41:48;3.50;99.90
7206;DHT22;3644;53.480;10.004;2023-04-06T03:44:14;3.60;99.90
7206;DHT22;3644;53.480;10.004;2023-04-06T03:46:40;3.60;99.90
7206;DHT22;3644;53.480;10.004;2023-04-06T03:49:05;3.50;99.90
7206;DHT22;3644;53.480;10.004;2023-04-06T03:51:31;3.50;99.90
7206;DHT22;3644;53.480;10.004;2023-04-06T03:53:56;3.40;99.90
7206;DHT22;3644;53.480;10.004;2023-04-06T03:56:22;3.50;99.90
7206;DHT22;3644;53.480;10.004;2023-04-06T03:58:47;3.50;99.90
7206;DHT22;3644;53.480;10.004;2023-04-06T04:01:19;3.50;99.90
7206;DHT22;3644;53.480;10.004;2023-04-06T04:03:44;3.50;99.90
7206;DHT22;3644;53.480;10.004;2023-04-06T04:06:10;3.40;99.90
7206;DHT22;3644;53.480;10.004;2023-04-06T04:08:35;3.40;99.90
7206;DHT22;3644;53.480;10.004;2023-04-06T04:11:01;3.40;99.90
7206;DHT22;3644;53.480;10.004;2023-04-06T04:13:26;3.30;99.90
7206;DHT22;3644;53.480;10.004;2023-04-06T04:15:52;3.40;99.90
7206;DHT22;3644;53.480;10.004;2023-04-06T04:18:18;3.30;99.90
7206;DHT22;3644;53.480;10.004;2023-04-06T04:20:44;3.20;99.90
7206;DHT22;3644;53.480;10.004;2023-04-06T04:23:09;3.40;99.90
7206;DHT22;3644;53.480;10.004;2023-04-06T04:25:35;3.30;99.90
7206;DHT22;3644;53.480;10.004;2023-04-06T04:28:00;3.20;99.90
7206;DHT22;3644;53.480;10.004;2023-04-06T04:30:26;3.20;99.90
7206;DHT22;3644;53.480;10.004;2023-04-06T04:32:51;3.20;99.90
7206;DHT22;3644;53.480;10.004;2023-04-06T04:35:17;3.20;99.90
7206;DHT22;3644;53.480;10.004;2023-04-06T04:37:42;3.30;99.90
7206;DHT22;3644;53.480;10.004;2023-04-06T04:40:08;3.20;99.90
7206;DHT22;3644;53.480;10.004;2023-04-06T04:42:34;3.10;99.90
7206;DHT22;3644;53.480;10.004;2023-04-06T04:45:00;3.00;99.90
7206;DHT22;3644;53.480;10.004;2023-04-06T04:47:25;3.20;99.90
7206;DHT22;3644;53.480;10.004;2023-04-06T04:49:51;3.10;99.90
7206;DHT22;3644;53.480;10.004;2023-04-06T04:52:16;3.10;99.90
7206;DHT22;3644;53.480;10.004;2023-04-06T04:54:42;3.20;99.90
7206;DHT22;3644;53.480;10.004;2023-04-06T04:57:07;3.20;99.90
7206;DHT22;3644;53.480;10.004;2023-04-06T04:59:34;3.20;99.90
7206;DHT22;3644;53.480;10.004;2023-04-06T05:01:59;3.20;99.90
7206;DHT22;3644;53.480;10.004;2023-04-06T05:04:25;3.20;99.90
7206;DHT22;3644;53.480;10.004;2023-04-06T05:07:02;3.10;99.90
7206;DHT22;3644;53.480;10.004;2023-04-06T05:09:29;3.10;99.90
7206;DHT22;3644;53.480;10.004;2023-04-06T05:11:55;3.10;99.90
7206;DHT22;3644;53.480;10.004;2023-04-06T05:14:21;3.20;99.90
7206;DHT22;3644;53.480;10.004;2023-04-06T05:16:46;3.30;99.90
7206;DHT22;3644;53.480;10.004;2023-04-06T05:19:12;3.20;99.90
7206;DHT22;3644;53.480;10.004;2023-04-06T05:21:37;3.20;99.90
7206;DHT22;3644;53.480;10.004;2023-04-06T05:24:03;3.20;99.90
7206;DHT22;3644;53.480;10.004;2023-04-06T05:26:29;3.40;99.90
7206;DHT22;3644;53.480;10.004;2023-04-06T05:28:54;3.40;99.90
7206;DHT22;3644;53.480;10.004;2023-04-06T05:31:20;3.40;99.90
7206;DHT22;3644;53.480;10.004;2023-04-06T05:33:45;3.50;99.90
7206;DHT22;3644;53.480;10.004;2023-04-06T05:36:11;3.60;99.90
7206;DHT22;3644;53.480;10.004;2023-04-06T05:38:37;3.60;99.90
7206;DHT22;3644;53.480;10.004;2023-04-06T05:41:02;3.60;99.90
7206;DHT22;3644;53.480;10.004;2023-04-06T05:43:28;3.70;99.90
7206;DHT22;3644;53.480;10.004;2023-04-06T05:45:53;3.70;99.90
7206;DHT22;3644;53.480;10.004;2023-04-06T05:48:19;3.90;99.90
7206;DHT22;3644;53.480;10.004;2023-04-06T05:50:48;3.90;99.90
7206;DHT22;3644;53.480;10.004;2023-04-06T05:53:15;4.00;99.90
7206;DHT22;3644;53.480;10.004;2023-04-06T05:55:41;4.10;99.90
7206;DHT22;3644;53.480;10.004;2023-04-06T05:58:06;4.00;99.90
7206;DHT22;3644;53.480;10.004;2023-04-06T06:00:32;3.90;99.90
7206;DHT22;3644;53.480;10.004;2023-04-06T06:02:58;3.80;99.90
7206;DHT22;3644;53.480;10.004;2023-04-06T06:05:23;3.80;99.90
7206;DHT22;3644;53.480;10.004;2023-04-06T06:07:49;3.90;99.90
7206;DHT22;3644;53.480;10.004;2023-04-06T06:10:14;3.90;99.90
7206;DHT22;3644;53.480;10.004;2023-04-06T06:12:40;4.00;99.90
7206;DHT22;3644;53.480;10.004;2023-04-06T06:15:06;4.00;99.90
7206;DHT22;3644;53.480;10.004;2023-04-06T06:17:31;4.10;99.90
7206;DHT22;3644;53.480;10.004;2023-04-06T06:19:57;4.00;99.90
7206;DHT22;3644;53.480;10.004;2023-04-06T06:22:23;4.00;99.90
7206;DHT22;3644;53.480;10.004;2023-04-06T06:24:48;4.10;99.90
7206;DHT22;3644;53.480;10.004;2023-04-06T06:27:15;4.10;99.90
7206;DHT22;3644;53.480;10.004;2023-04-06T06:29:41;4.20;99.90
7206;DHT22;3644;53.480;10.004;2023-04-06T06:32:09;4.30;99.90
7206;DHT22;3644;53.480;10.004;2023-04-06T06:34:35;4.30;99.90
7206;DHT22;3644;53.480;10.004;2023-04-06T06:37:01;4.40;99.90
7206;DHT22;3644;53.480;10.004;2023-04-06T06:39:27;4.30;99.90
7206;DHT22;3644;53.480;10.004;2023-04-06T06:41:53;4.40;99.90
7206;DHT22;3644;53.480;10.004;2023-04-06T06:44:20;4.40;99.90
7206;DHT22;3644;53.480;10.004;2023-04-06T06:46:47;4.50;99.90
7206;DHT22;3644;53.480;10.004;2023-04-06T06:49:12;4.50;99.90
7206;DHT22;3644;53.480;10.004;2023-04-06T06:51:39;4.60;99.90
7206;DHT22;3644;53.480;10.004;2023-04-06T06:54:05;4.70;99.90
7206;DHT22;3644;53.480;10.004;2023-04-06T06:56:31;4.70;99.90
7206;DHT22;3644;53.480;10.004;2023-04-06T06:58:57;4.70;99.90
7206;DHT22;3644;53.480;10.004;2023-04-06T07:01:22;4.70;99.90
7206;DHT22;3644;53.480;10.004;2023-04-06T07:03:48;4.80;99.90
7206;DHT22;3644;53.480;10.004;2023-04-06T07:06:13;4.90;99.90
7206;DHT22;3644;53.480;10.004;2023-04-06T07:08:39;4.90;99.90
7206;DHT22;3644;53.480;10.004;2023-04-06T07:11:04;4.90;99.90
7206;DHT22;3644;53.480;10.004;2023-04-06T07:13:30;4.90;99.90
7206;DHT22;3644;53.480;10.004;2023-04-06T07:15:55;5.10;99.90
7206;DHT22;3644;53.480;10.004;2023-04-06T07:18:21;5.10;99.90
7206;DHT22;3644;53.480;10.004;2023-04-06T07:20:47;5.10;99.90
7206;DHT22;3644;53.480;10.004;2023-04-06T07:23:13;5.20;99.90
7206;DHT22;3644;53.480;10.004;2023-04-06T07:25:38;5.20;99.90
7206;DHT22;3644;53.480;10.004;2023-04-06T07:28:04;5.30;99.90
7206;DHT22;3644;53.480;10.004;2023-04-06T07:30:29;5.40;99.90
7206;DHT22;3644;53.480;10.004;2023-04-06T07:32:55;5.40;99.90
7206;DHT22;3644;53.480;10.004;2023-04-06T07:35:22;5.50;99.90
7206;DHT22;3644;53.480;10.004;2023-04-06T07:37:48;5.70;99.90
7206;DHT22;3644;53.480;10.004;2023-04-06T07:40:14;5.80;99.90
7206;DHT22;3644;53.480;10.004;2023-04-06T07:42:40;5.90;99.90
7206;DHT22;3644;53.480;10.004;2023-04-06T07:45:06;5.90;99.90
7206;DHT22;3644;53.480;10.004;2023-04-06T07:47:32;6.00;99.90
7206;DHT22;3644;53.480;10.004;2023-04-06T07:49:57;6.10;99.90
7206;DHT22;3644;53.480;10.004;2023-04-06T07:52:23;6.30;99.90
7206;DHT22;3644;53.480;10.004;2023-04-06T07:54:48;6.30;99.90
7206;DHT22;3644;53.480;10.004;2023-04-06T07:57:14;6.50;99.90
7206;DHT22;3644;53.480;10.004;2023-04-06T07:59:40;6.60;99.90
7206;DHT22;3644;53.480;10.004;2023-04-06T08:02:05;6.80;99.90
7206;DHT22;3644;53.480;10.004;2023-04-06T08:04:31;6.90;99.90
7206;DHT22;3644;53.480;10.004;2023-04-06T08:06:57;6.90;99.90
7206;DHT22;3644;53.480;10.004;2023-04-06T08:09:22;6.90;99.90
7206;DHT22;3644;53.480;10.004;2023-04-06T08:11:48;7.00;99.90
7206;DHT22;3644;53.480;10.004;2023-04-06T08:14:14;7.20;99.90
7206;DHT22;3644;53.480;10.004;2023-04-06T08:16:41;7.30;99.90
7206;DHT22;3644;53.480;10.004;2023-04-06T08:19:06;7.40;99.90
7206;DHT22;3644;53.480;10.004;2023-04-06T08:21:35;7.50;99.90
7206;DHT22;3644;53.480;10.004;2023-04-06T08:24:01;7.60;99.90
7206;DHT22;3644;53.480;10.004;2023-04-06T08:26:27;7.80;99.90
7206;DHT22;3644;53.480;10.004;2023-04-06T08:28:52;7.80;99.90
7206;DHT22;3644;53.480;10.004;2023-04-06T08:31:18;7.90;99.90
7206;DHT22;3644;53.480;10.004;2023-04-06T08:33:43;8.00;99.90
7206;DHT22;3644;53.480;10.004;2023-04-06T08:36:13;8.20;99.90
7206;DHT22;3644;53.480;10.004;2023-04-06T08:38:40;8.20;99.90
7206;DHT22;3644;53.480;10.004;2023-04-06T08:41:13;8.20;99.90
7206;DHT22;3644;53.480;10.004;2023-04-06T08:43:44;8.30;99.90
7206;DHT22;3644;53.480;10.004;2023-04-06T08:46:11;8.40;99.90
7206;DHT22;3644;53.480;10.004;2023-04-06T08:48:38;8.50;99.90
7206;DHT22;3644;53.480;10.004;2023-04-06T08:51:05;8.60;99.90
7206;DHT22;3644;53.480;10.004;2023-04-06T08:53:31;8.70;99.90
7206;DHT22;3644;53.480;10.004;2023-04-06T08:55:58;8.80;99.90
7206;DHT22;3644;53.480;10.004;2023-04-06T08:58:26;9.00;99.90
7206;DHT22;3644;53.480;10.004;2023-04-06T09:00:53;9.10;99.90
7206;DHT22;3644;53.480;10.004;2023-04-06T09:03:20;9.20;99.90
7206;DHT22;3644;53.480;10.004;2023-04-06T09:05:46;9.40;99.90
7206;DHT22;3644;53.480;10.004;2023-04-06T09:08:12;9.40;99.90
7206;DHT22;3644;53.480;10.004;2023-04-06T09:10:41;9.50;99.90
7206;DHT22;3644;53.480;10.004;2023-04-06T09:13:07;9.60;99.90
7206;DHT22;3644;53.480;10.004;2023-04-06T09:15:33;9.70;99.90
7206;DHT22;3644;53.480;10.004;2023-04-06T09:17:59;9.60;99.90
7206;DHT22;3644;53.480;10.004;2023-04-06T09:20:25;9.80;99.90
7206;DHT22;3644;53.480;10.004;2023-04-06T09:22:51;9.80;99.90
7206;DHT22;3644;53.480;10.004;2023-04-06T09:25:21;9.90;99.90
7206;DHT22;3644;53.480;10.004;2023-04-06T09:27:48;10.10;98.90
7206;DHT22;3644;53.480;10.004;2023-04-06T09:30:15;10.10;94.40
7206;DHT22;3644;53.480;10.004;2023-04-06T09:32:46;10.20;91.80
7206;DHT22;3644;53.480;10.004;2023-04-06T09:35:12;10.20;90.90
7206;DHT22;3644;53.480;10.004;2023-04-06T09:37:38;10.30;91.20
7206;DHT22;3644;53.480;10.004;2023-04-06T09:40:05;10.60;95.50
7206;DHT22;3644;53.480;10.004;2023-04-06T09:42:31;10.70;93.10
7206;DHT22;3644;53.480;10.004;2023-04-06T09:44:57;10.80;92.00
7206;DHT22;3644;53.480;10.004;2023-04-06T09:47:23;11.00;93.50
7206;DHT22;3644;53.480;10.004;2023-04-06T09:49:50;11.10;89.20
7206;DHT22;3644;53.480;10.004;2023-04-06T09:52:19;11.10;78.10
7206;DHT22;3644;53.480;10.004;2023-04-06T09:54:46;11.00;81.90
7206;DHT22;3644;53.480;10.004;2023-04-06T09:57:26;11.20;81.90
7206;DHT22;3644;53.480;10.004;2023-04-06T10:00:07;11.20;84.30
7206;DHT22;3644;53.480;10.004;2023-04-06T10:05:43;11.40;74.70
7206;DHT22;3644;53.480;10.004;2023-04-06T10:08:11;11.50;77.20
7206;DHT22;3644;53.480;10.004;2023-04-06T10:10:37;11.60;73.70
7206;DHT22;3644;53.480;10.004;2023-04-06T10:13:04;11.70;70.20
7206;DHT22;3644;53.480;10.004;2023-04-06T10:15:30;11.70;70.80
7206;DHT22;3644;53.480;10.004;2023-04-06T10:17:56;11.80;71.90
7206;DHT22;3644;53.480;10.004;2023-04-06T10:23:12;12.00;72.10
7206;DHT22;3644;53.480;10.004;2023-04-06T10:25:52;12.00;69.90
7206;DHT22;3644;53.480;10.004;2023-04-06T10:28:19;12.00;70.30
7206;DHT22;3644;53.480;10.004;2023-04-06T10:30:45;12.20;67.60
7206;DHT22;3644;53.480;10.004;2023-04-06T10:33:18;12.10;68.00
7206;DHT22;3644;53.480;10.004;2023-04-06T10:35:44;12.10;69.00
7206;DHT22;3644;53.480;10.004;2023-04-06T10:38:10;12.30;68.70
7206;DHT22;3644;53.480;10.004;2023-04-06T10:40:39;12.40;71.60
7206;DHT22;3644;53.480;10.004;2023-04-06T10:43:20;12.60;68.20
7206;DHT22;3644;53.480;10.004;2023-04-06T10:45:59;12.60;65.00
7206;DHT22;3644;53.480;10.004;2023-04-06T10:48:25;12.70;65.00
7206;DHT22;3644;53.480;10.004;2023-04-06T10:50:52;12.70;66.90
7206;DHT22;3644;53.480;10.004;2023-04-06T10:53:27;12.70;64.10
7206;DHT22;3644;53.480;10.004;2023-04-06T10:55:56;12.70;66.30
7206;DHT22;3644;53.480;10.004;2023-04-06T10:58:25;12.70;65.30
7206;DHT22;3644;53.480;10.004;2023-04-06T11:00:51;12.70;68.00
7206;DHT22;3644;53.480;10.004;2023-04-06T11:03:17;12.80;65.70
7206;DHT22;3644;53.480;10.004;2023-04-06T11:05:44;12.90;65.10
7206;DHT22;3644;53.480;10.004;2023-04-06T11:08:10;12.90;64.10
7206;DHT22;3644;53.480;10.004;2023-04-06T11:10:36;13.00;64.60
7206;DHT22;3644;53.480;10.004;2023-04-06T11:13:02;13.00;64.10
7206;DHT22;3644;53.480;10.004;2023-04-06T11:15:34;13.20;63.70
7206;DHT22;3644;53.480;10.004;2023-04-06T11:18:03;13.30;61.80
7206;DHT22;3644;53.480;10.004;2023-04-06T11:20:30;13.30;65.10
7206;DHT22;3644;53.480;10.004;2023-04-06T11:22:55;13.30;62.90
7206;DHT22;3644;53.480;10.004;2023-04-06T11:25:21;13.30;63.70
7206;DHT22;3644;53.480;10.004;2023-04-06T11:27:47;13.50;61.50
7206;DHT22;3644;53.480;10.004;2023-04-06T11:30:13;13.60;62.10
7206;DHT22;3644;53.480;10.004;2023-04-06T11:32:41;13.70;60.40
7206;DHT22;3644;53.480;10.004;2023-04-06T11:35:10;13.70;60.20
7206;DHT22;3644;53.480;10.004;2023-04-06T11:37:36;13.80;65.30
7206;DHT22;3644;53.480;10.004;2023-04-06T11:40:02;13.90;60.00
7206;DHT22;3644;53.480;10.004;2023-04-06T11:42:29;14.10;57.20
7206;DHT22;3644;53.480;10.004;2023-04-06T11:44:56;14.00;57.80
7206;DHT22;3644;53.480;10.004;2023-04-06T11:47:30;14.00;56.70
7206;DHT22;3644;53.480;10.004;2023-04-06T11:49:56;13.90;57.50
7206;DHT22;3644;53.480;10.004;2023-04-06T11:52:26;14.00;57.70
7206;DHT22;3644;53.480;10.004;2023-04-06T11:54:54;14.20;58.50
7206;DHT22;3644;53.480;10.004;2023-04-06T11:57:21;14.20;57.00
7206;DHT22;3644;53.480;10.004;2023-04-06T11:59:49;14.10;57.10
7206;DHT22;3644;53.480;10.004;2023-04-06T12:02:15;14.20;57.60
7206;DHT22;3644;53.480;10.004;2023-04-06T12:04:40;14.20;55.00
7206;DHT22;3644;53.480;10.004;2023-04-06T12:07:06;14.30;57.70
7206;DHT22;3644;53.480;10.004;2023-04-06T12:09:32;14.40;56.80
7206;DHT22;3644;53.480;10.004;2023-04-06T12:11:57;14.70;57.80
7206;DHT22;3644;53.480;10.004;2023-04-06T12:14:23;14.80;55.80
7206;DHT22;3644;53.480;10.004;2023-04-06T12:16:48;14.80;56.70
7206;DHT22;3644;53.480;10.004;2023-04-06T12:19:14;14.70;58.00
7206;DHT22;3644;53.480;10.004;2023-04-06T12:21:40;14.80;57.10
7206;DHT22;3644;53.480;10.004;2023-04-06T12:24:06;14.70;55.40
7206;DHT22;3644;53.480;10.004;2023-04-06T12:26:32;14.70;55.60
7206;DHT22;3644;53.480;10.004;2023-04-06T12:28:59;14.90;55.60
7206;DHT22;3644;53.480;10.004;2023-04-06T12:31:32;14.90;56.10
7206;DHT22;3644;53.480;10.004;2023-04-06T12:33:59;15.20;55.50
7206;DHT22;3644;53.480;10.004;2023-04-06T12:36:25;15.10;54.40
7206;DHT22;3644;53.480;10.004;2023-04-06T12:38:50;15.20;54.50
7206;DHT22;3644;53.480;10.004;2023-04-06T12:41:17;15.30;54.80
7206;DHT22;3644;53.480;10.004;2023-04-06T12:43:43;15.30;53.90
7206;DHT22;3644;53.480;10.004;2023-04-06T12:46:09;15.50;53.90
7206;DHT22;3644;53.480;10.004;2023-04-06T12:48:36;15.50;53.50
7206;DHT22;3644;53.480;10.004;2023-04-06T12:51:03;15.50;52.70
7206;DHT22;3644;53.480;10.004;2023-04-06T12:53:30;15.50;51.60
7206;DHT22;3644;53.480;10.004;2023-04-06T12:55:56;15.40;52.00
7206;DHT22;3644;53.480;10.004;2023-04-06T12:58:23;15.30;51.30
7206;DHT22;3644;53.480;10.004;2023-04-06T13:00:49;15.30;52.10
7206;DHT22;3644;53.480;10.004;2023-04-06T13:03:17;15.50;53.90
7206;DHT22;3644;53.480;10.004;2023-04-06T13:05:46;15.60;53.30
7206;DHT22;3644;53.480;10.004;2023-04-06T13:08:13;15.70;53.40
7206;DHT22;3644;53.480;10.004;2023-04-06T13:10:43;15.70;52.40
7206;DHT22;3644;53.480;10.004;2023-04-06T13:13:09;15.70;53.00
7206;DHT22;3644;53.480;10.004;2023-04-06T13:15:34;15.70;54.50
7206;DHT22;3644;53.480;10.004;2023-04-06T13:18:02;15.90;53.40
7206;DHT22;3644;53.480;10.004;2023-04-06T13:20:27;16.00;53.00
7206;DHT22;3644;53.480;10.004;2023-04-06T13:22:53;16.20;53.40
7206;DHT22;3644;53.480;10.004;2023-04-06T13:25:18;16.10;51.10
7206;DHT22;3644;53.480;10.004;2023-04-06T13:27:44;16.30;49.80
7206;DHT22;3644;53.480;10.004;2023-04-06T13:30:12;16.30;48.70
7206;DHT22;3644;53.480;10.004;2023-04-06T13:32:38;16.60;50.80
7206;DHT22;3644;53.480;10.004;2023-04-06T13:35:04;16.80;48.70
7206;DHT22;3644;53.480;10.004;2023-04-06T13:37:30;16.90;49.20
7206;DHT22;3644;53.480;10.004;2023-04-06T13:39:55;16.80;50.00
7206;DHT22;3644;53.480;10.004;2023-04-06T13:42:21;16.80;49.20
7206;DHT22;3644;53.480;10.004;2023-04-06T13:44:46;16.90;51.30
7206;DHT22;3644;53.480;10.004;2023-04-06T13:47:12;17.00;48.00
7206;DHT22;3644;53.480;10.004;2023-04-06T13:49:38;17.00;47.60
7206;DHT22;3644;53.480;10.004;2023-04-06T13:52:04;17.00;47.00
7206;DHT22;3644;53.480;10.004;2023-04-06T13:54:29;16.90;46.90
7206;DHT22;3644;53.480;10.004;2023-04-06T13:56:55;16.80;47.90
7206;DHT22;3644;53.480;10.004;2023-04-06T13:59:21;16.70;48.70
7206;DHT22;3644;53.480;10.004;2023-04-06T14:01:47;16.70;46.90
7206;DHT22;3644;53.480;10.004;2023-04-06T14:04:13;16.80;49.80
7206;DHT22;3644;53.480;10.004;2023-04-06T14:06:38;16.90;46.90
7206;DHT22;3644;53.480;10.004;2023-04-06T14:09:04;17.10;47.20
7206;DHT22;3644;53.480;10.004;2023-04-06T14:11:29;17.20;47.10
7206;DHT22;3644;53.480;10.004;2023-04-06T14:13:55;17.20;48.00
7206;DHT22;3644;53.480;10.004;2023-04-06T14:16:23;17.10;47.20
7206;DHT22;3644;53.480;10.004;2023-04-06T14:18:49;17.00;47.80
7206;DHT22;3644;53.480;10.004;2023-04-06T14:21:14;17.00;47.40
7206;DHT22;3644;53.480;10.004;2023-04-06T14:23:40;16.80;48.20
7206;DHT22;3644;53.480;10.004;2023-04-06T14:26:07;17.00;50.30
7206;DHT22;3644;53.480;10.004;2023-04-06T14:28:35;16.90;49.10
7206;DHT22;3644;53.480;10.004;2023-04-06T14:31:01;17.10;48.70
7206;DHT22;3644;53.480;10.004;2023-04-06T14:33:29;17.20;45.70
7206;DHT22;3644;53.480;10.004;2023-04-06T14:35:55;17.20;46.10
7206;DHT22;3644;53.480;10.004;2023-04-06T14:38:21;17.10;46.20
7206;DHT22;3644;53.480;10.004;2023-04-06T14:40:47;17.20;46.30
7206;DHT22;3644;53.480;10.004;2023-04-06T14:43:12;17.10;46.90
7206;DHT22;3644;53.480;10.004;2023-04-06T14:45:38;17.10;47.80
7206;DHT22;3644;53.480;10.004;2023-04-06T14:48:04;17.10;47.00
7206;DHT22;3644;53.480;10.004;2023-04-06T14:50:32;17.10;46.60
7206;DHT22;3644;53.480;10.004;2023-04-06T14:52:58;16.80;46.40
7206;DHT22;3644;53.480;10.004;2023-04-06T14:55:24;16.80;47.90
7206;DHT22;3644;53.480;10.004;2023-04-06T14:57:49;17.00;48.50
7206;DHT22;3644;53.480;10.004;2023-04-06T15:00:15;17.00;48.20
7206;DHT22;3644;53.480;10.004;2023-04-06T15:02:41;16.80;48.30
7206;DHT22;3644;53.480;10.004;2023-04-06T15:05:08;16.70;47.60
7206;DHT22;3644;53.480;10.004;2023-04-06T15:07:34;16.80;48.00
7206;DHT22;3644;53.480;10.004;2023-04-06T15:10:00;17.00;46.70
7206;DHT22;3644;53.480;10.004;2023-04-06T15:12:25;17.10;45.10
7206;DHT22;3644;53.480;10.004;2023-04-06T15:14:51;17.20;46.10
7206;DHT22;3644;53.480;10.004;2023-04-06T15:17:16;17.30;45.40
7206;DHT22;3644;53.480;10.004;2023-04-06T15:19:42;17.50;46.10
7206;DHT22;3644;53.480;10.004;2023-04-06T15:22:07;17.50;48.40
7206;DHT22;3644;53.480;10.004;2023-04-06T15:24:33;17.40;46.90
7206;DHT22;3644;53.480;10.004;2023-04-06T15:26:58;17.50;48.00
7206;DHT22;3644;53.480;10.004;2023-04-06T15:29:24;17.30;46.00
7206;DHT22;3644;53.480;10.004;2023-04-06T15:31:50;17.10;45.40
7206;DHT22;3644;53.480;10.004;2023-04-06T15:34:16;17.00;46.20
7206;DHT22;3644;53.480;10.004;2023-04-06T15:36:41;16.80;46.60
7206;DHT22;3644;53.480;10.004;2023-04-06T15:39:09;16.70;47.40
7206;DHT22;3644;53.480;10.004;2023-04-06T15:41:34;16.80;48.40
7206;DHT22;3644;53.480;10.004;2023-04-06T15:44:00;16.80;46.80
7206;DHT22;3644;53.480;10.004;2023-04-06T15:46:26;16.60;47.60
7206;DHT22;3644;53.480;10.004;2023-04-06T15:48:52;16.70;46.70
7206;DHT22;3644;53.480;10.004;2023-04-06T15:51:17;16.60;46.30
7206;DHT22;3644;53.480;10.004;2023-04-06T15:53:44;16.60;46.90